createdAt,value
2023-05-23T00:01:58.976Z,100749.34
2023-05-23T00:04:28.525Z,100754.53
2023-05-23T00:06:58.031Z,100750.63
2023-05-23T00:09:27.470Z,100747.22
2023-05-23T00:11:56.836Z,100753.22
2023-05-23T00:14:26.795Z,100754.81
2023-05-23T00:16:59.774Z,100750.25
2023-05-23T00:19:29.272Z,100744.03
2023-05-23T00:22:01.407Z,100733.94
2023-05-23T00:24:30.814Z,100738.94
2023-05-23T00:27:00.153Z,100741.19
2023-05-23T00:29:29.564Z,100733.31
2023-05-23T00:32:01.489Z,100738.19
2023-05-23T00:34:30.889Z,100738.81
2023-05-23T00:37:00.239Z,100722.81
2023-05-23T00:39:29.613Z,100735.91
2023-05-23T00:41:59.102Z,100732.22
2023-05-23T00:44:28.481Z,100735.28
2023-05-23T00:47:02.162Z,100734.34
2023-05-23T00:49:31.926Z,100731.31
2023-05-23T00:52:01.712Z,100733.72
2023-05-23T00:54:32.529Z,100730.50
2023-05-23T00:57:02.991Z,100738.03
2023-05-23T00:59:33.867Z,100739.84
2023-05-23T01:02:06.091Z,100739.47
2023-05-23T01:04:36.205Z,100730.63
2023-05-23T01:07:05.815Z,100727.50
2023-05-23T01:09:35.441Z,100727.50
2023-05-23T01:12:19.949Z,100732.38
2023-05-23T01:14:54.429Z,100723.81
2023-05-23T01:17:32.072Z,100726.56
2023-05-23T01:20:05.521Z,100723.16
2023-05-23T01:23:32.571Z,100705.63
2023-05-23T01:26:15.128Z,100706.56
2023-05-23T01:28:50.489Z,100712.88
2023-05-23T01:31:21.167Z,100714.34
2023-05-23T01:33:53.535Z,100720.59
2023-05-23T01:36:23.842Z,100723.13
2023-05-23T01:38:53.241Z,100723.94
2023-05-23T01:41:22.657Z,100717.53
2023-05-23T01:43:54.669Z,100716.38
2023-05-23T01:46:25.199Z,100716.09
2023-05-23T01:48:56.397Z,100710.28
2023-05-23T01:51:27.500Z,100722.81
2023-05-23T01:53:57.159Z,100718.78
2023-05-23T01:56:30.848Z,100718.69
2023-05-23T01:59:03.021Z,100718.13
2023-05-23T02:01:32.752Z,100715.47
2023-05-23T02:04:02.192Z,100719.91
2023-05-23T02:06:31.969Z,100718.28
2023-05-23T02:09:03.373Z,100711.75
2023-05-23T02:11:32.987Z,100715.47
2023-05-23T02:14:07.866Z,100716.97
2023-05-23T02:16:38.219Z,100718.88
2023-05-23T02:19:07.814Z,100717.00
2023-05-23T02:21:40.044Z,100713.06
2023-05-23T02:24:11.470Z,100715.41
2023-05-23T02:26:41.864Z,100725.25
2023-05-23T02:29:16.741Z,100729.69
2023-05-23T02:31:46.209Z,100730.56
2023-05-23T02:34:15.864Z,100732.91
2023-05-23T02:36:45.238Z,100735.97
2023-05-23T02:39:14.931Z,100733.56
2023-05-23T02:41:46.554Z,100739.50
2023-05-23T02:44:19.728Z,100736.78
2023-05-23T02:46:49.712Z,100735.53
2023-05-23T02:49:19.212Z,100742.63
2023-05-23T02:51:48.605Z,100737.28
2023-05-23T02:54:17.991Z,100734.56
2023-05-23T02:56:47.959Z,100732.25
2023-05-23T02:59:19.922Z,100733.13
2023-05-23T03:01:49.291Z,100727.31
2023-05-23T03:04:18.815Z,100736.91
2023-05-23T03:06:48.254Z,100740.34
2023-05-23T03:09:19.568Z,100737.41
2023-05-23T03:11:49.199Z,100735.53
2023-05-23T03:14:21.268Z,100742.91
2023-05-23T03:16:50.950Z,100743.84
2023-05-23T03:19:20.448Z,100742.53
2023-05-23T03:21:51.090Z,100744.72
2023-05-23T03:24:21.027Z,100740.50
2023-05-23T03:26:50.441Z,100735.97
2023-05-23T03:29:22.516Z,100734.34
2023-05-23T03:31:51.959Z,100732.38
2023-05-23T03:34:21.384Z,100728.66
2023-05-23T03:36:51.171Z,100732.38
2023-05-23T03:39:20.622Z,100729.06
2023-05-23T03:41:50.007Z,100739.25
2023-05-23T03:44:22.143Z,100745.00
2023-05-23T03:46:51.631Z,100740.34
2023-05-23T03:49:21.059Z,100732.69
2023-05-23T03:51:50.464Z,100733.00
2023-05-23T03:54:20.316Z,100733.38
2023-05-23T03:56:49.734Z,100726.41
2023-05-23T03:59:21.719Z,100730.03
2023-05-23T04:01:51.229Z,100729.22
2023-05-23T04:04:21.257Z,100731.34
2023-05-23T04:06:50.764Z,100736.91
2023-05-23T04:09:20.204Z,100726.81
2023-05-23T04:11:50.205Z,100732.44
2023-05-23T04:14:22.884Z,100734.56
2023-05-23T04:16:52.705Z,100736.78
2023-05-23T04:19:22.520Z,100733.34
2023-05-23T04:21:51.964Z,100741.34
2023-05-23T04:24:21.305Z,100738.31
2023-05-23T04:26:50.698Z,100733.63
2023-05-23T04:29:22.801Z,100739.31
2023-05-23T04:31:52.198Z,100739.19
2023-05-23T04:34:22.547Z,100739.81
2023-05-23T04:36:54.073Z,100738.81
2023-05-23T04:39:23.629Z,100738.53
2023-05-23T04:41:54.554Z,100742.06
2023-05-23T04:44:26.890Z,100741.78
2023-05-23T04:46:56.752Z,100743.13
2023-05-23T04:49:27.040Z,100738.06
2023-05-23T04:51:56.536Z,100742.56
2023-05-23T04:54:26.123Z,100742.16
2023-05-23T04:56:55.715Z,100742.09
2023-05-23T04:59:27.702Z,100747.16
2023-05-23T05:01:57.083Z,100752.00
2023-05-23T05:04:26.517Z,100752.88
2023-05-23T05:06:56.148Z,100756.03
2023-05-23T05:09:26.076Z,100759.97
2023-05-23T05:11:55.505Z,100752.53
2023-05-23T05:14:29.194Z,100749.06
2023-05-23T05:16:58.744Z,100755.28
2023-05-23T05:19:29.035Z,100756.69
2023-05-23T05:22:00.582Z,100765.72
2023-05-23T05:24:30.560Z,100758.91
2023-05-23T05:27:00.040Z,100766.81
2023-05-23T05:29:33.876Z,100766.66
2023-05-23T05:32:04.044Z,100766.19
2023-05-23T05:34:33.590Z,100759.00
2023-05-23T05:37:02.964Z,100765.88
2023-05-23T05:39:32.388Z,100766.50
2023-05-23T05:42:03.830Z,100760.84
2023-05-23T05:44:35.903Z,100768.53
2023-05-23T05:47:05.254Z,100766.88
2023-05-23T05:49:34.646Z,100773.44
2023-05-23T05:52:04.076Z,100774.97
2023-05-23T05:54:33.480Z,100779.34
2023-05-23T05:57:04.198Z,100769.38
2023-05-23T05:59:36.262Z,100768.41
2023-05-23T06:02:05.661Z,100783.00
2023-05-23T06:04:35.317Z,100786.97
2023-05-23T06:07:04.719Z,100779.78
2023-05-23T06:09:34.123Z,100776.38
2023-05-23T06:12:03.541Z,100780.94
2023-05-23T06:14:32.933Z,100777.00
2023-05-23T06:17:06.121Z,100786.25
2023-05-23T06:19:35.540Z,100776.97
2023-05-23T06:22:04.872Z,100782.25
2023-05-23T06:24:34.248Z,100781.19
2023-05-23T06:27:03.636Z,100780.50
2023-05-23T06:29:33.399Z,100776.31
2023-05-23T06:32:05.715Z,100783.53
2023-05-23T06:34:35.448Z,100782.28
2023-05-23T06:37:04.817Z,100779.25
2023-05-23T06:39:34.351Z,100784.91
2023-05-23T06:42:04.511Z,100785.16
2023-05-23T06:44:33.863Z,100784.25
2023-05-23T06:47:05.856Z,100782.84
2023-05-23T06:49:35.208Z,100779.81
2023-05-23T06:52:04.575Z,100770.03
2023-05-23T06:54:34.065Z,100783.84
2023-05-23T06:57:03.450Z,100778.13
2023-05-23T06:59:32.787Z,100773.44
2023-05-23T07:02:04.762Z,100776.63
2023-05-23T07:04:34.128Z,100777.06
2023-05-23T07:07:03.540Z,100773.44
2023-05-23T07:09:32.971Z,100765.72
2023-05-23T07:12:02.354Z,100776.88
2023-05-23T07:14:31.761Z,100780.50
2023-05-23T07:17:01.207Z,100773.09
2023-05-23T07:19:33.259Z,100790.53
2023-05-23T07:22:03.867Z,100781.31
2023-05-23T07:24:33.214Z,100790.25
2023-05-23T07:27:02.618Z,100790.31
2023-05-23T07:29:32.375Z,100802.59
2023-05-23T07:32:01.854Z,100782.50
2023-05-23T07:34:33.844Z,100789.34
2023-05-23T07:37:03.231Z,100799.72
2023-05-23T07:39:32.647Z,100790.97
2023-05-23T07:42:04.387Z,100795.88
2023-05-23T07:44:33.799Z,100800.03
2023-05-23T07:47:04.887Z,100798.03
2023-05-23T07:49:36.993Z,100799.88
2023-05-23T07:52:07.326Z,100798.53
2023-05-23T07:54:36.754Z,100796.78
2023-05-23T07:57:07.489Z,100794.56
2023-05-23T07:59:36.864Z,100807.44
2023-05-23T08:02:06.546Z,100806.56
2023-05-23T08:04:40.625Z,100799.28
2023-05-23T08:07:11.662Z,100802.53
2023-05-23T08:09:41.305Z,100797.97
2023-05-23T08:12:10.988Z,100803.97
2023-05-23T08:14:50.656Z,100817.00
2023-05-23T08:17:21.916Z,100812.63
2023-05-23T08:19:53.898Z,100817.94
2023-05-23T08:22:23.285Z,100818.19
2023-05-23T08:24:52.648Z,100823.66
2023-05-23T08:27:22.008Z,100838.97
2023-05-23T08:29:51.551Z,100842.69
2023-05-23T08:32:20.937Z,100841.28
2023-05-23T08:34:50.344Z,100840.91
2023-05-23T08:37:22.369Z,100854.13
2023-05-23T08:39:52.308Z,100845.50
2023-05-23T08:42:21.761Z,100856.13
2023-05-23T08:44:51.678Z,100856.50
2023-05-23T08:47:23.269Z,100852.47
2023-05-23T08:49:55.397Z,100864.16
2023-05-23T08:52:30.401Z,100855.91
2023-05-23T08:55:00.460Z,100866.69
2023-05-23T08:57:30.889Z,100869.44
2023-05-23T09:00:01.833Z,100872.00
2023-05-23T09:02:32.606Z,100887.66
2023-05-23T09:05:02.023Z,100888.06
2023-05-23T09:07:34.056Z,100891.31
2023-05-23T09:10:03.507Z,100893.28
2023-05-23T09:12:34.178Z,100891.06
2023-05-23T09:15:03.559Z,100914.84
2023-05-23T09:17:34.243Z,100911.78
2023-05-23T09:20:04.888Z,100916.31
2023-05-23T09:22:36.811Z,100923.84
2023-05-23T09:25:06.514Z,100926.06
2023-05-23T09:27:36.209Z,100923.31
2023-05-23T09:30:10.295Z,100925.88
2023-05-23T09:32:40.284Z,100935.97
2023-05-23T09:35:12.473Z,100935.25
2023-05-23T09:37:48.074Z,100937.81
2023-05-23T09:40:18.320Z,100947.22
2023-05-23T09:42:49.235Z,100942.94
2023-05-23T09:45:19.629Z,100947.44
2023-05-23T09:47:53.543Z,100944.09
2023-05-23T09:50:23.844Z,100941.50
2023-05-23T09:52:55.909Z,100952.25
2023-05-23T09:55:25.381Z,100958.78
2023-05-23T09:57:57.379Z,100967.56
2023-05-23T10:00:28.752Z,100969.38
2023-05-23T10:03:04.549Z,100975.69
2023-05-23T10:05:37.516Z,100973.19
2023-05-23T10:08:12.556Z,100981.06
2023-05-23T10:11:39.854Z,100985.28
2023-05-23T10:14:12.008Z,100995.19
2023-05-23T10:16:50.289Z,101001.00
2023-05-23T10:19:26.574Z,101004.91
2023-05-23T10:22:02.915Z,101007.53
2023-05-23T10:24:36.518Z,101005.81
2023-05-23T10:27:06.543Z,101019.78
2023-05-23T10:29:36.693Z,101024.75
2023-05-23T10:32:08.870Z,101020.19
2023-05-23T10:34:43.244Z,101032.41
2023-05-23T10:37:18.249Z,101038.16
2023-05-23T10:40:00.315Z,101038.13
2023-05-23T10:42:38.969Z,101041.63
2023-05-23T10:45:18.733Z,101042.78
2023-05-23T10:47:49.762Z,101054.72
2023-05-23T10:50:33.576Z,101062.03
2023-05-23T10:53:04.386Z,101063.94
2023-05-23T10:55:39.907Z,101064.25
2023-05-23T10:58:14.253Z,101062.03
2023-05-23T11:00:53.506Z,101071.00
2023-05-23T11:03:35.462Z,101081.25
2023-05-23T11:06:06.642Z,101091.91
2023-05-23T11:08:48.970Z,101089.44
2023-05-23T11:11:22.083Z,101088.09
2023-05-23T11:14:00.862Z,101093.50
2023-05-23T11:16:31.915Z,101104.63
2023-05-23T11:19:28.634Z,101104.34
2023-05-23T11:22:01.348Z,101102.50
2023-05-23T11:24:53.045Z,101099.75
2023-05-23T11:27:34.764Z,101098.69
2023-05-23T11:30:07.213Z,101115.50
2023-05-23T11:32:37.271Z,101114.94
2023-05-23T11:35:08.887Z,101126.25
2023-05-23T11:37:40.643Z,101122.00
2023-05-23T11:40:28.902Z,101130.13
2023-05-23T11:43:01.745Z,101130.13
2023-05-23T11:45:32.370Z,101133.13
2023-05-23T11:48:01.889Z,101147.78
2023-05-23T11:50:31.340Z,101132.31
2023-05-23T11:53:00.799Z,101144.81
2023-05-23T11:55:30.308Z,101146.88
2023-05-23T11:58:03.386Z,101147.25
2023-05-23T12:00:32.979Z,101148.03
2023-05-23T12:03:09.891Z,101148.88
2023-05-23T12:05:39.277Z,101143.19
2023-05-23T12:08:08.960Z,101156.19
2023-05-23T12:10:38.410Z,101148.31
2023-05-23T12:13:10.450Z,101151.78
2023-05-23T12:15:42.091Z,101156.09
2023-05-23T12:18:11.715Z,101156.69
2023-05-23T12:20:41.614Z,101155.91
2023-05-23T12:23:11.472Z,101162.16
2023-05-23T12:25:43.030Z,101158.91
2023-05-23T12:28:16.197Z,101166.69
2023-05-23T12:30:46.260Z,101161.06
2023-05-23T12:33:16.190Z,101170.84
2023-05-23T12:35:48.535Z,101164.34
2023-05-23T12:38:19.960Z,101171.47
2023-05-23T12:40:49.364Z,101168.94
2023-05-23T12:43:21.296Z,101149.94
2023-05-23T12:45:50.702Z,101173.03
2023-05-23T12:48:20.145Z,101171.66
2023-05-23T12:50:49.540Z,101179.88
2023-05-23T12:53:19.031Z,101171.38
2023-05-23T12:55:48.373Z,101170.38
2023-05-23T12:58:22.048Z,101174.41
2023-05-23T13:00:51.422Z,101176.59
2023-05-23T13:03:21.505Z,101185.31
2023-05-23T13:05:51.135Z,101187.66
2023-05-23T13:08:21.387Z,101179.53
2023-05-23T13:10:50.811Z,101192.34
2023-05-23T13:13:22.917Z,101187.13
2023-05-23T13:15:52.775Z,101189.59
2023-05-23T13:18:22.266Z,101185.03
2023-05-23T13:20:51.759Z,101193.19
2023-05-23T13:23:21.357Z,101180.69
2023-05-23T13:25:51.387Z,101177.13
2023-05-23T13:28:23.384Z,101194.75
2023-05-23T13:30:53.131Z,101202.97
2023-05-23T13:33:23.204Z,101187.41
2023-05-23T13:35:54.396Z,101194.81
2023-05-23T13:38:26.674Z,101189.38
2023-05-23T13:40:57.120Z,101201.03
2023-05-23T13:43:29.096Z,101199.41
2023-05-23T13:45:58.530Z,101192.28
2023-05-23T13:48:27.992Z,101218.16
2023-05-23T13:50:58.383Z,101203.44
2023-05-23T13:53:28.400Z,101215.13
2023-05-23T13:55:57.905Z,101206.72
2023-05-23T13:58:32.579Z,101203.16
2023-05-23T14:01:02.790Z,101209.13
2023-05-23T14:03:32.193Z,101218.09
2023-05-23T14:06:01.564Z,101224.69
2023-05-23T14:08:30.914Z,101219.25
2023-05-23T14:11:00.305Z,101227.06
2023-05-23T14:13:32.968Z,101227.41
2023-05-23T14:16:02.495Z,101225.75
2023-05-23T14:18:31.940Z,101221.56
2023-05-23T14:21:01.280Z,101232.19
2023-05-23T14:23:30.965Z,101241.41
2023-05-23T14:26:00.309Z,101242.06
2023-05-23T14:28:32.304Z,101242.06
2023-05-23T14:31:01.784Z,101230.56
2023-05-23T14:33:31.131Z,101244.97
2023-05-23T14:36:01.025Z,101250.66
2023-05-23T14:38:30.381Z,101249.84
2023-05-23T14:41:00.140Z,101233.28
2023-05-23T14:43:32.175Z,101250.66
2023-05-23T14:46:02.060Z,101241.75
2023-05-23T14:48:31.562Z,101241.47
2023-05-23T14:51:01.993Z,101252.28
2023-05-23T14:53:31.638Z,101257.94
2023-05-23T14:56:01.107Z,101255.47
2023-05-23T14:58:33.056Z,101253.31
2023-05-23T15:01:02.582Z,101250.59
2023-05-23T15:03:32.447Z,101254.16
2023-05-23T15:06:03.362Z,101273.25
2023-05-23T15:08:33.808Z,101261.47
2023-05-23T15:11:03.901Z,101276.13
2023-05-23T15:13:35.840Z,101275.28
2023-05-23T15:16:05.844Z,101275.56
2023-05-23T15:18:41.346Z,101275.59
2023-05-23T15:21:12.450Z,101279.09
2023-05-23T15:23:41.974Z,101276.59
2023-05-23T15:26:11.627Z,101285.03
2023-05-23T15:28:43.552Z,101295.53
2023-05-23T15:31:12.929Z,101285.72
2023-05-23T15:33:42.315Z,101296.78
2023-05-23T15:36:13.342Z,101294.94
2023-05-23T15:38:43.881Z,101296.34
2023-05-23T15:41:13.594Z,101304.19
2023-05-23T15:43:47.470Z,101305.59
2023-05-23T15:46:17.130Z,101312.25
2023-05-23T15:48:46.530Z,101310.97
2023-05-23T15:51:16.556Z,101311.44
2023-05-23T15:54:00.045Z,101308.59
2023-05-23T15:56:30.465Z,101306.94
2023-05-23T15:59:05.395Z,101312.00
2023-05-23T16:01:35.282Z,101310.41
2023-05-23T16:04:04.736Z,101307.47
2023-05-23T16:06:34.101Z,101313.66
2023-05-23T16:09:03.486Z,101305.06
2023-05-23T16:11:32.883Z,101311.72
2023-05-23T16:14:04.822Z,101326.91
2023-05-23T16:16:34.212Z,101313.84
2023-05-23T16:19:03.717Z,101323.91
2023-05-23T16:21:33.464Z,101315.31
2023-05-23T16:24:02.901Z,101317.00
2023-05-23T16:26:32.582Z,101313.63
2023-05-23T16:29:02.021Z,101314.88
2023-05-23T16:31:34.018Z,101322.25
2023-05-23T16:34:03.463Z,101314.88
2023-05-23T16:36:32.835Z,101315.09
2023-05-23T16:39:03.304Z,101315.88
2023-05-23T16:41:32.663Z,101319.97
2023-05-23T16:44:03.390Z,101321.91
2023-05-23T16:46:35.522Z,101316.81
2023-05-23T16:49:04.930Z,101319.34
2023-05-23T16:51:34.724Z,101336.81
2023-05-23T16:54:04.134Z,101337.41
2023-05-23T16:56:33.902Z,101339.88
2023-05-23T16:59:03.263Z,101340.53
2023-05-23T17:01:35.718Z,101341.66
2023-05-23T17:04:06.852Z,101349.88
2023-05-23T17:06:37.283Z,101344.59
2023-05-23T17:09:06.760Z,101348.25
2023-05-23T17:11:36.104Z,101348.97
2023-05-23T17:14:05.499Z,101347.38
2023-05-23T17:16:37.647Z,101340.16
2023-05-23T17:19:08.117Z,101352.41
2023-05-23T17:21:37.795Z,101345.72
2023-05-23T17:24:07.384Z,101345.50
2023-05-23T17:26:36.988Z,101343.06
2023-05-23T17:29:06.776Z,101333.81
2023-05-23T17:31:38.817Z,101343.91
2023-05-23T17:34:08.256Z,101344.13
2023-05-23T17:36:37.636Z,101348.94
2023-05-23T17:39:07.252Z,101353.31
2023-05-23T17:41:36.637Z,101352.91
2023-05-23T17:44:06.389Z,101342.38
2023-05-23T17:46:38.524Z,101359.25
2023-05-23T17:49:07.924Z,101353.72
2023-05-23T17:51:37.299Z,101346.38
2023-05-23T17:54:07.257Z,101352.28
2023-05-23T17:56:37.408Z,101373.06
2023-05-23T17:59:07.792Z,101362.16
2023-05-23T18:01:39.816Z,101370.16
2023-05-23T18:04:09.383Z,101372.09
2023-05-23T18:06:39.041Z,101372.34
2023-05-23T18:09:09.849Z,101376.44
2023-05-23T18:11:39.464Z,101369.59
2023-05-23T18:14:08.816Z,101377.25
2023-05-23T18:16:40.891Z,101389.44
2023-05-23T18:19:10.359Z,101389.53
2023-05-23T18:21:39.795Z,101383.13
2023-05-23T18:24:11.988Z,101386.63
2023-05-23T18:26:43.365Z,101391.50
2023-05-23T18:29:12.951Z,101393.31
2023-05-23T18:31:45.702Z,101399.50
2023-05-23T18:34:15.043Z,101396.63
2023-05-23T18:36:44.506Z,101399.38
2023-05-23T18:39:14.083Z,101392.75
2023-05-23T18:41:43.561Z,101404.16
2023-05-23T18:44:13.580Z,101408.53
2023-05-23T18:46:46.044Z,101407.38
2023-05-23T18:49:15.715Z,101402.56
2023-05-23T18:51:45.743Z,101416.16
2023-05-23T18:54:15.090Z,101411.88
2023-05-23T18:56:44.450Z,101419.25
2023-05-23T18:59:16.000Z,101415.81
2023-05-23T19:01:48.001Z,101421.88
2023-05-23T19:04:17.525Z,101414.78
2023-05-23T19:06:47.975Z,101421.00
2023-05-23T19:09:17.511Z,101425.16
2023-05-23T19:11:46.953Z,101425.28
2023-05-23T19:14:17.775Z,101435.88
2023-05-23T19:16:49.865Z,101432.34
2023-05-23T19:19:20.200Z,101431.56
2023-05-23T19:21:49.766Z,101441.41
2023-05-23T19:24:19.196Z,101434.03
2023-05-23T19:26:48.564Z,101429.56
2023-05-23T19:29:18.138Z,101436.38
2023-05-23T19:31:50.530Z,101426.38
2023-05-23T19:34:19.941Z,101434.75
2023-05-23T19:36:49.860Z,101432.22
2023-05-23T19:39:19.234Z,101436.81
2023-05-23T19:41:48.698Z,101439.78
2023-05-23T19:44:18.187Z,101445.19
2023-05-23T19:46:50.169Z,101449.44
2023-05-23T19:49:22.642Z,101446.22
2023-05-23T19:51:54.079Z,101451.00
2023-05-23T19:54:24.626Z,101452.59
2023-05-23T19:56:54.003Z,101450.13
2023-05-23T19:59:23.363Z,101460.03
2023-05-23T20:01:55.439Z,101461.66
2023-05-23T20:04:25.392Z,101467.16
2023-05-23T20:06:56.087Z,101465.25
2023-05-23T20:09:25.640Z,101476.97
2023-05-23T20:11:55.009Z,101459.63
2023-05-23T20:14:24.787Z,101475.78
2023-05-23T20:16:56.779Z,101478.47
2023-05-23T20:19:26.325Z,101478.31
2023-05-23T20:21:56.809Z,101480.44
2023-05-23T20:24:27.020Z,101485.16
2023-05-23T20:26:56.414Z,101481.41
2023-05-23T20:29:25.938Z,101492.56
2023-05-23T20:31:57.890Z,101490.00
2023-05-23T20:34:27.451Z,101501.16
2023-05-23T20:36:57.603Z,101496.88
2023-05-23T20:39:27.255Z,101499.84
2023-05-23T20:41:56.660Z,101502.84
2023-05-23T20:44:27.010Z,101500.41
2023-05-23T20:46:59.304Z,101498.59
2023-05-23T20:49:28.807Z,101502.47
2023-05-23T20:51:58.333Z,101494.09
2023-05-23T20:54:29.241Z,101487.38
2023-05-23T20:56:59.118Z,101477.88
2023-05-23T20:59:30.547Z,101496.81
2023-05-23T21:02:02.540Z,101485.34
2023-05-23T21:04:31.962Z,101485.69
2023-05-23T21:07:01.524Z,101475.84
2023-05-23T21:09:32.866Z,101479.28
2023-05-23T21:12:02.209Z,101488.63
2023-05-23T21:14:31.545Z,101481.66
2023-05-23T21:17:03.595Z,101485.81
2023-05-23T21:19:33.108Z,101493.53
2023-05-23T21:22:02.572Z,101494.78
2023-05-23T21:24:32.090Z,101495.66
2023-05-23T21:27:01.829Z,101493.88
2023-05-23T21:29:31.274Z,101498.13
2023-05-23T21:32:03.291Z,101505.31
2023-05-23T21:34:32.642Z,101500.44
2023-05-23T21:37:02.019Z,101497.72
2023-05-23T21:39:47.085Z,101499.75
2023-05-23T21:42:20.487Z,101500.19
2023-05-23T21:44:49.881Z,101497.88
2023-05-23T21:47:25.880Z,101501.50
2023-05-23T21:49:55.421Z,101501.72
2023-05-23T21:52:26.458Z,101498.88
2023-05-23T21:54:55.895Z,101501.06
2023-05-23T21:57:25.419Z,101500.66
2023-05-23T21:59:54.839Z,101491.22
2023-05-23T22:02:27.071Z,101490.97
2023-05-23T22:04:58.529Z,101492.47
2023-05-23T22:07:28.136Z,101493.34
2023-05-23T22:09:57.876Z,101498.88
2023-05-23T22:12:29.085Z,101496.06
2023-05-23T22:14:58.645Z,101488.84
2023-05-23T22:17:34.237Z,101491.63
2023-05-23T22:20:05.457Z,101492.56
2023-05-23T22:22:35.778Z,101496.97
2023-05-23T22:25:05.579Z,101498.44
2023-05-23T22:27:35.177Z,101500.03
2023-05-23T22:30:05.742Z,101495.41
2023-05-23T22:32:38.520Z,101492.31
2023-05-23T22:35:09.172Z,101508.59
2023-05-23T22:37:38.729Z,101492.69
2023-05-23T22:40:11.750Z,101507.41
2023-05-23T22:42:41.331Z,101507.97
2023-05-23T22:45:12.303Z,101504.72
2023-05-23T22:47:48.529Z,101515.22
2023-05-23T22:50:18.384Z,101515.00
2023-05-23T22:52:48.605Z,101510.63
2023-05-23T22:55:18.006Z,101512.16
2023-05-23T22:57:47.578Z,101512.03
2023-05-23T23:00:17.518Z,101506.69
2023-05-23T23:02:49.575Z,101510.00
2023-05-23T23:05:19.499Z,101504.88
2023-05-23T23:07:49.038Z,101503.97
2023-05-23T23:10:18.537Z,101499.63
2023-05-23T23:12:47.948Z,101491.59
2023-05-23T23:15:17.402Z,101492.97
2023-05-23T23:17:49.502Z,101490.03
2023-05-23T23:20:19.592Z,101502.25
2023-05-23T23:22:49.149Z,101497.38
2023-05-23T23:25:19.058Z,101508.31
2023-05-23T23:27:48.539Z,101502.72
2023-05-23T23:30:18.254Z,101500.13
2023-05-23T23:32:50.273Z,101505.75
2023-05-23T23:35:19.726Z,101504.41
2023-05-23T23:37:49.095Z,101501.47
2023-05-23T23:40:18.587Z,101507.19
2023-05-23T23:42:48.005Z,101495.16
2023-05-23T23:45:17.421Z,101489.91
2023-05-23T23:47:46.867Z,101488.28
2023-05-23T23:50:18.941Z,101491.22
2023-05-23T23:52:48.420Z,101494.13
2023-05-23T23:55:17.913Z,101491.13
2023-05-23T23:57:47.605Z,101490.78
